createdAt,value
2019-05-02T00:00:57.002Z,0.00
2019-05-02T00:01:57.014Z,0.00
2019-05-02T00:02:59.856Z,0.00
2019-05-02T00:03:56.971Z,0.00
2019-05-02T00:04:57.102Z,0.00
2019-05-02T00:05:56.957Z,0.00
2019-05-02T00:06:56.936Z,0.00
2019-05-02T00:07:58.493Z,0.00
2019-05-02T00:08:56.977Z,0.00
2019-05-02T00:09:56.918Z,0.00
2019-05-02T00:10:56.985Z,0.00
2019-05-02T00:11:58.858Z,0.00
2019-05-02T00:12:56.853Z,0.00
2019-05-02T00:13:56.860Z,0.00
2019-05-02T00:15:02.010Z,0.00
2019-05-02T00:15:58.027Z,0.00
2019-05-02T00:16:56.823Z,0.00
2019-05-02T00:18:01.047Z,0.00
2019-05-02T00:18:56.810Z,0.00
2019-05-02T00:19:56.801Z,0.00
2019-05-02T00:20:57.145Z,0.00
2019-05-02T00:21:56.778Z,0.00
2019-05-02T00:22:56.769Z,0.00
2019-05-02T00:23:59.243Z,0.00
2019-05-02T00:24:57.721Z,0.00
2019-05-02T00:25:56.813Z,0.00
2019-05-02T00:27:01.199Z,0.00
2019-05-02T00:27:57.722Z,0.00
2019-05-02T00:28:56.709Z,0.00
2019-05-02T00:29:58.767Z,0.00
2019-05-02T00:30:56.693Z,0.00
2019-05-02T00:31:56.664Z,0.00
2019-05-02T00:32:58.249Z,0.00
2019-05-02T00:33:56.633Z,0.00
2019-05-02T00:34:56.632Z,0.00
2019-05-02T00:35:56.617Z,0.00
2019-05-02T00:36:56.623Z,0.00
2019-05-02T00:37:57.532Z,0.00
2019-05-02T00:38:57.583Z,0.00
2019-05-02T00:39:56.598Z,0.00
2019-05-02T00:40:57.499Z,0.00
2019-05-02T00:41:57.590Z,0.00
2019-05-02T00:42:58.148Z,0.00
2019-05-02T00:43:56.592Z,0.00
2019-05-02T00:44:56.578Z,0.00
2019-05-02T00:45:59.783Z,0.00
2019-05-02T00:46:56.536Z,0.00
2019-05-02T00:47:56.517Z,0.00
2019-05-02T00:49:00.147Z,0.00
2019-05-02T00:49:57.472Z,0.00
2019-05-02T00:50:56.494Z,0.00
2019-05-02T00:52:00.928Z,0.00
2019-05-02T00:52:56.451Z,0.00
2019-05-02T00:53:56.461Z,0.00
2019-05-02T00:54:58.711Z,0.00
2019-05-02T00:55:56.392Z,0.00
2019-05-02T00:56:56.443Z,0.00
2019-05-02T00:57:56.941Z,0.00
2019-05-02T00:58:56.381Z,0.00
2019-05-02T00:59:56.400Z,0.00
2019-05-02T01:00:56.353Z,0.00
2019-05-02T01:02:00.135Z,0.00
2019-05-02T01:02:57.351Z,0.00
2019-05-02T01:03:56.340Z,0.00
2019-05-02T01:04:59.373Z,0.00
2019-05-02T01:05:57.297Z,0.00
2019-05-02T01:06:56.294Z,0.00
2019-05-02T01:08:01.057Z,0.00
2019-05-02T01:08:57.243Z,0.00
2019-05-02T01:09:56.248Z,0.00
2019-05-02T01:10:56.855Z,0.00
2019-05-02T01:11:56.228Z,0.00
2019-05-02T01:12:56.250Z,0.00
2019-05-02T01:13:57.756Z,0.00
2019-05-02T01:14:56.315Z,0.00
2019-05-02T01:15:56.239Z,0.00
2019-05-02T01:16:56.333Z,0.00
2019-05-02T01:17:56.158Z,0.00
2019-05-02T01:18:56.141Z,0.00
2019-05-02T01:19:56.133Z,0.00
2019-05-02T01:20:58.065Z,0.00
2019-05-02T01:21:57.209Z,0.00
2019-05-02T01:22:56.138Z,0.00
2019-05-02T01:23:58.909Z,0.00
2019-05-02T01:24:57.194Z,0.00
2019-05-02T01:25:56.769Z,0.00
2019-05-02T01:26:59.893Z,0.00
2019-05-02T01:27:57.114Z,0.00
2019-05-02T01:28:56.224Z,0.00
2019-05-02T01:29:56.100Z,0.00
2019-05-02T01:30:56.117Z,0.00
2019-05-02T01:31:56.083Z,0.00
2019-05-02T01:32:56.050Z,0.00
2019-05-02T01:33:56.027Z,0.00
2019-05-02T01:34:56.399Z,0.00
2019-05-02T01:35:56.021Z,0.00
2019-05-02T01:36:55.993Z,0.00
2019-05-02T01:37:56.138Z,0.00
2019-05-02T01:38:55.956Z,0.00
2019-05-02T01:39:55.950Z,0.00
2019-05-02T01:40:55.911Z,0.00
2019-05-02T01:42:00.074Z,0.00
2019-05-02T01:42:57.774Z,0.00
2019-05-02T01:44:00.172Z,0.00
2019-05-02T01:44:56.916Z,0.00
2019-05-02T01:45:55.871Z,0.00
2019-05-02T01:46:58.705Z,0.00
2019-05-02T01:47:55.850Z,0.00
2019-05-02T01:48:55.879Z,0.00
2019-05-02T01:49:57.158Z,0.00
2019-05-02T01:50:56.775Z,0.00
2019-05-02T01:51:55.878Z,0.00
2019-05-02T01:52:58.485Z,0.00
2019-05-02T01:53:55.775Z,0.00
2019-05-02T01:54:55.810Z,0.00
2019-05-02T01:55:57.636Z,0.00
2019-05-02T01:56:55.754Z,0.00
2019-05-02T01:57:55.782Z,0.00
2019-05-02T01:58:57.657Z,0.00
2019-05-02T01:59:55.751Z,0.00
2019-05-02T02:00:55.710Z,0.00
2019-05-02T02:01:57.929Z,0.00
2019-05-02T02:02:55.691Z,0.00
2019-05-02T02:03:55.729Z,0.00
2019-05-02T02:04:56.953Z,0.00
2019-05-02T02:05:55.676Z,0.00
2019-05-02T02:06:55.731Z,0.00
2019-05-02T02:07:57.446Z,0.00
2019-05-02T02:08:56.773Z,0.00
2019-05-02T02:09:55.771Z,0.00
2019-05-02T02:10:57.970Z,0.00
2019-05-02T02:11:55.631Z,0.00
2019-05-02T02:13:04.672Z,0.00
2019-05-02T02:13:56.626Z,0.00
2019-05-02T02:14:55.652Z,0.00
2019-05-02T02:16:00.107Z,0.00
2019-05-02T02:16:57.273Z,0.00
2019-05-02T02:17:55.562Z,0.00
2019-05-02T02:18:59.066Z,0.00
2019-05-02T02:19:56.557Z,0.00
2019-05-02T02:20:55.493Z,0.00
2019-05-02T02:21:57.504Z,0.00
2019-05-02T02:22:56.510Z,0.00
2019-05-02T02:23:55.614Z,0.00
2019-05-02T02:24:55.934Z,0.00
2019-05-02T02:25:57.347Z,0.00
2019-05-02T02:26:55.428Z,0.00
2019-05-02T02:27:59.735Z,0.00
2019-05-02T02:28:56.385Z,0.00
2019-05-02T02:29:55.390Z,0.00
2019-05-02T02:30:57.636Z,0.00
2019-05-02T02:31:56.366Z,0.00
2019-05-02T02:33:00.825Z,0.00
2019-05-02T02:33:56.369Z,0.00
2019-05-02T02:34:55.382Z,0.00
2019-05-02T02:35:55.340Z,0.00
2019-05-02T02:36:55.346Z,0.00
2019-05-02T02:37:55.843Z,0.00
2019-05-02T02:38:55.330Z,0.00
2019-05-02T02:39:56.443Z,0.00
2019-05-02T02:40:55.319Z,0.00
2019-05-02T02:41:55.513Z,0.00
2019-05-02T02:42:55.331Z,0.00
2019-05-02T02:44:00.518Z,0.00
2019-05-02T02:44:56.294Z,0.00
2019-05-02T02:45:57.642Z,0.00
2019-05-02T02:46:55.317Z,0.00
2019-05-02T02:47:59.819Z,0.00
2019-05-02T02:48:56.231Z,0.00
2019-05-02T02:50:02.474Z,0.00
2019-05-02T02:50:59.468Z,0.00
2019-05-02T02:51:58.176Z,0.00
2019-05-02T02:52:56.335Z,0.00
2019-05-02T02:54:03.106Z,0.00
2019-05-02T02:54:56.138Z,0.00
2019-05-02T02:56:00.789Z,0.00
2019-05-02T02:56:56.187Z,0.00
2019-05-02T02:57:58.652Z,0.00
2019-05-02T02:58:56.235Z,0.00
2019-05-02T03:00:06.678Z,0.00
2019-05-02T03:00:56.074Z,0.00
2019-05-02T03:01:55.104Z,0.00
2019-05-02T03:02:55.066Z,0.00
2019-05-02T03:03:55.134Z,0.00
2019-05-02T03:04:55.045Z,0.00
2019-05-02T03:05:58.698Z,0.00
2019-05-02T03:06:56.013Z,0.00
2019-05-02T03:07:59.760Z,0.00
2019-05-02T03:08:56.013Z,0.00
2019-05-02T03:09:59.611Z,0.00
2019-05-02T03:10:56.032Z,0.00
2019-05-02T03:11:56.341Z,0.00
2019-05-02T03:12:56.011Z,0.00
2019-05-02T03:14:06.160Z,0.00
2019-05-02T03:14:56.111Z,0.00
2019-05-02T03:16:00.322Z,0.00
2019-05-02T03:16:55.994Z,0.00
2019-05-02T03:18:00.052Z,0.00
2019-05-02T03:18:55.870Z,0.00
2019-05-02T03:20:01.121Z,0.00
2019-05-02T03:20:55.866Z,0.00
2019-05-02T03:22:01.210Z,0.00
2019-05-02T03:22:55.897Z,0.00
2019-05-02T03:24:03.032Z,0.00
2019-05-02T03:24:55.908Z,0.00
2019-05-02T03:25:54.826Z,0.00
2019-05-02T03:26:55.647Z,0.00
2019-05-02T03:27:54.805Z,0.00
2019-05-02T03:28:58.380Z,0.00
2019-05-02T03:29:55.750Z,0.00
2019-05-02T03:30:54.950Z,0.00
2019-05-02T03:32:12.446Z,0.00
2019-05-02T03:33:06.035Z,0.00
2019-05-02T03:34:00.568Z,0.00
2019-05-02T03:34:55.733Z,0.00
2019-05-02T03:35:54.735Z,0.00
2019-05-02T03:36:54.730Z,0.00
2019-05-02T03:37:54.704Z,0.00
2019-05-02T03:38:55.287Z,5.62
2019-05-02T03:40:00.354Z,5.62
2019-05-02T03:40:55.694Z,5.62
2019-05-02T03:41:55.417Z,5.62
2019-05-02T03:42:56.948Z,5.62
2019-05-02T03:44:09.965Z,5.62
2019-05-02T03:45:01.492Z,5.62
2019-05-02T03:45:55.630Z,5.62
2019-05-02T03:47:02.375Z,5.62
2019-05-02T03:47:55.550Z,5.62
2019-05-02T03:49:05.529Z,5.62
2019-05-02T03:49:55.563Z,5.62
2019-05-02T03:50:54.732Z,5.62
2019-05-02T03:51:55.800Z,11.25
2019-05-02T03:52:55.536Z,11.25
2019-05-02T03:54:06.356Z,11.25
2019-05-02T03:54:55.588Z,11.25
2019-05-02T03:55:54.481Z,11.25
2019-05-02T03:56:54.519Z,16.88
2019-05-02T03:57:54.483Z,16.88
2019-05-02T03:58:56.242Z,11.25
2019-05-02T03:59:54.468Z,16.88
2019-05-02T04:01:00.481Z,16.88
2019-05-02T04:01:55.421Z,16.88
2019-05-02T04:03:00.390Z,16.88
2019-05-02T04:03:55.502Z,16.88
2019-05-02T04:05:00.340Z,16.88
2019-05-02T04:05:55.557Z,16.88
2019-05-02T04:06:54.973Z,16.88
2019-05-02T04:07:55.444Z,22.50
2019-05-02T04:09:00.034Z,22.50
2019-05-02T04:09:55.496Z,28.12
2019-05-02T04:10:59.514Z,28.12
2019-05-02T04:11:56.294Z,28.12
2019-05-02T04:12:58.368Z,28.12
2019-05-02T04:13:55.356Z,28.12
2019-05-02T04:14:55.945Z,33.75
2019-05-02T04:15:54.327Z,33.75
2019-05-02T04:16:55.169Z,39.38
2019-05-02T04:17:54.265Z,39.38
2019-05-02T04:18:55.822Z,39.38
2019-05-02T04:19:54.328Z,45.00
2019-05-02T04:20:54.234Z,50.62
2019-05-02T04:21:54.961Z,45.00
2019-05-02T04:22:54.798Z,56.25
2019-05-02T04:23:54.207Z,50.62
2019-05-02T04:24:56.330Z,50.62
2019-05-02T04:25:54.206Z,56.25
2019-05-02T04:26:56.337Z,50.62
2019-05-02T04:27:54.156Z,50.62
2019-05-02T04:28:54.139Z,45.00
2019-05-02T04:29:54.181Z,50.62
2019-05-02T04:30:54.169Z,50.62
2019-05-02T04:31:54.929Z,50.62
2019-05-02T04:32:55.803Z,45.00
2019-05-02T04:33:54.081Z,45.00
2019-05-02T04:34:55.265Z,45.00
2019-05-02T04:35:54.153Z,50.62
2019-05-02T04:37:01.590Z,50.62
2019-05-02T04:37:57.495Z,56.25
2019-05-02T04:38:54.081Z,61.88
2019-05-02T04:39:59.144Z,61.88
2019-05-02T04:40:55.124Z,56.25
2019-05-02T04:41:54.041Z,56.25
2019-05-02T04:43:02.101Z,56.25
2019-05-02T04:43:57.819Z,56.25
2019-05-02T04:45:13.877Z,56.25
2019-05-02T04:45:59.719Z,61.88
2019-05-02T04:47:09.975Z,84.38
2019-05-02T04:48:00.911Z,73.12
2019-05-02T04:48:55.431Z,67.50
2019-05-02T04:49:53.908Z,61.88
2019-05-02T04:51:08.660Z,73.12
2019-05-02T04:52:11.574Z,78.75
2019-05-02T04:53:18.293Z,67.50
2019-05-02T04:53:59.338Z,67.50
2019-05-02T04:55:08.126Z,73.12
2019-05-02T04:56:06.910Z,73.12
2019-05-02T04:56:55.482Z,73.12
2019-05-02T04:57:53.873Z,90.00
2019-05-02T04:58:53.805Z,90.00
2019-05-02T05:00:02.374Z,95.62
2019-05-02T05:00:59.312Z,95.62
2019-05-02T05:02:00.365Z,90.00
2019-05-02T05:02:54.969Z,90.00
2019-05-02T05:03:58.171Z,95.62
2019-05-02T05:04:54.748Z,95.62
2019-05-02T05:05:59.380Z,106.88
2019-05-02T05:07:00.082Z,90.00
2019-05-02T05:07:54.733Z,95.62
2019-05-02T05:08:53.771Z,95.62
2019-05-02T05:09:58.262Z,106.88
2019-05-02T05:10:54.707Z,106.88
2019-05-02T05:11:53.787Z,95.62
2019-05-02T05:12:53.677Z,101.25
2019-05-02T05:13:57.599Z,101.25
2019-05-02T05:14:54.712Z,118.12
2019-05-02T05:15:57.329Z,101.25
2019-05-02T05:16:58.020Z,90.00
2019-05-02T05:17:53.654Z,95.62
2019-05-02T05:18:53.682Z,90.00
2019-05-02T05:19:57.724Z,101.25
2019-05-02T05:21:03.082Z,106.88
2019-05-02T05:22:47.900Z,101.25
2019-05-02T05:22:54.693Z,106.88
2019-05-02T05:23:59.673Z,101.25
2019-05-02T05:24:58.107Z,106.88
2019-05-02T05:25:55.786Z,106.88
2019-05-02T05:26:54.557Z,101.25
2019-05-02T05:28:00.225Z,95.62
2019-05-02T05:28:54.511Z,106.88
2019-05-02T05:29:58.586Z,106.88
2019-05-02T05:30:54.538Z,106.88
2019-05-02T05:31:55.092Z,112.50
2019-05-02T05:32:54.465Z,129.38
2019-05-02T05:33:53.445Z,118.12
2019-05-02T05:34:53.469Z,135.00
2019-05-02T05:35:53.403Z,118.12
2019-05-02T05:36:53.406Z,123.75
2019-05-02T05:37:53.492Z,157.50
2019-05-02T05:38:53.428Z,163.12
2019-05-02T05:39:53.369Z,168.75
2019-05-02T05:41:08.955Z,151.88
2019-05-02T05:41:54.358Z,168.75
2019-05-02T05:42:54.450Z,163.12
2019-05-02T05:43:53.672Z,168.75
2019-05-02T05:44:53.322Z,157.50
2019-05-02T05:45:56.301Z,163.12
2019-05-02T05:46:54.345Z,163.12
2019-05-02T05:47:57.605Z,151.88
2019-05-02T05:48:54.825Z,146.25
2019-05-02T05:49:57.562Z,157.50
2019-05-02T05:50:54.368Z,151.88
2019-05-02T05:51:54.445Z,157.50
2019-05-02T05:52:54.331Z,157.50
2019-05-02T05:53:59.065Z,168.75
2019-05-02T05:54:54.226Z,174.38
2019-05-02T05:55:53.621Z,180.00
2019-05-02T05:56:53.383Z,185.62
2019-05-02T05:57:59.468Z,168.75
2019-05-02T05:58:54.149Z,163.12
2019-05-02T05:59:53.155Z,180.00
2019-05-02T06:00:55.447Z,180.00
2019-05-02T06:01:53.176Z,191.25
2019-05-02T06:02:56.780Z,180.00
2019-05-02T06:03:54.165Z,168.75
2019-05-02T06:04:55.186Z,157.50
2019-05-02T06:05:54.108Z,168.75
2019-05-02T06:06:53.997Z,157.50
2019-05-02T06:07:54.095Z,151.88
2019-05-02T06:08:54.023Z,157.50
2019-05-02T06:09:53.068Z,163.12
2019-05-02T06:10:53.036Z,163.12
2019-05-02T06:11:55.353Z,168.75
2019-05-02T06:12:53.003Z,168.75
2019-05-02T06:13:53.018Z,168.75
2019-05-02T06:14:56.226Z,168.75
2019-05-02T06:16:01.930Z,168.75
2019-05-02T06:16:53.967Z,180.00
2019-05-02T06:17:52.959Z,180.00
2019-05-02T06:18:52.984Z,185.62
2019-05-02T06:19:55.392Z,208.12
2019-05-02T06:20:52.941Z,202.50
2019-05-02T06:21:52.960Z,219.38
2019-05-02T06:22:55.013Z,219.38
2019-05-02T06:23:53.960Z,219.38
2019-05-02T06:24:52.928Z,225.00
2019-05-02T06:25:52.890Z,241.88
2019-05-02T06:26:52.896Z,230.62
2019-05-02T06:27:52.950Z,236.25
2019-05-02T06:28:52.887Z,236.25
2019-05-02T06:29:56.081Z,241.88
2019-05-02T06:30:52.873Z,230.62
2019-05-02T06:31:52.811Z,247.50
2019-05-02T06:32:54.856Z,236.25
2019-05-02T06:33:52.810Z,236.25
2019-05-02T06:34:52.804Z,253.12
2019-05-02T06:36:01.130Z,264.38
2019-05-02T06:36:53.792Z,247.50
2019-05-02T06:37:52.741Z,247.50
2019-05-02T06:38:56.638Z,264.38
2019-05-02T06:39:53.729Z,286.88
2019-05-02T06:40:53.360Z,270.00
2019-05-02T06:41:57.523Z,247.50
2019-05-02T06:42:53.714Z,270.00
2019-05-02T06:43:52.718Z,253.12
2019-05-02T06:44:54.911Z,253.12
2019-05-02T06:45:53.688Z,298.12
2019-05-02T06:46:52.679Z,292.50
2019-05-02T06:47:52.650Z,230.62
2019-05-02T06:48:53.661Z,258.75
2019-05-02T06:49:56.036Z,236.25
2019-05-02T06:50:53.661Z,247.50
2019-05-02T06:51:56.394Z,241.88
2019-05-02T06:52:53.575Z,253.12
2019-05-02T06:53:52.621Z,241.88
2019-05-02T06:54:54.094Z,253.12
2019-05-02T06:55:53.563Z,253.12
2019-05-02T06:56:52.572Z,230.62
2019-05-02T06:57:57.006Z,225.00
2019-05-02T06:58:53.533Z,208.12
2019-05-02T06:59:54.655Z,230.62
2019-05-02T07:00:58.364Z,225.00
2019-05-02T07:01:57.441Z,230.62
2019-05-02T07:02:52.500Z,230.62
2019-05-02T07:03:52.472Z,236.25
2019-05-02T07:04:54.757Z,264.38
2019-05-02T07:05:52.457Z,225.00
2019-05-02T07:06:58.895Z,219.38
2019-05-02T07:07:53.485Z,253.12
2019-05-02T07:08:52.454Z,236.25
2019-05-02T07:09:52.449Z,202.50
2019-05-02T07:10:55.964Z,196.88
2019-05-02T07:11:57.430Z,202.50
2019-05-02T07:13:09.796Z,196.88
2019-05-02T07:13:53.948Z,174.38
2019-05-02T07:14:56.091Z,180.00
2019-05-02T07:15:53.393Z,180.00
2019-05-02T07:16:54.641Z,180.00
2019-05-02T07:17:52.327Z,208.12
2019-05-02T07:18:52.308Z,219.38
2019-05-02T07:19:52.305Z,219.38
2019-05-02T07:20:52.397Z,208.12
2019-05-02T07:21:53.041Z,225.00
2019-05-02T07:22:53.285Z,225.00
2019-05-02T07:23:53.512Z,247.50
2019-05-02T07:24:52.260Z,247.50
2019-05-02T07:25:52.240Z,225.00
2019-05-02T07:26:56.807Z,236.25
2019-05-02T07:27:52.263Z,202.50
2019-05-02T07:28:52.206Z,202.50
2019-05-02T07:29:57.818Z,208.12
2019-05-02T07:30:54.826Z,213.75
2019-05-02T07:31:53.646Z,208.12
2019-05-02T07:32:56.327Z,208.12
2019-05-02T07:33:53.172Z,196.88
2019-05-02T07:34:52.973Z,208.12
2019-05-02T07:35:55.195Z,196.88
2019-05-02T07:36:53.123Z,185.62
2019-05-02T07:37:52.140Z,180.00
2019-05-02T07:38:52.124Z,185.62
2019-05-02T07:39:52.107Z,196.88
2019-05-02T07:40:53.054Z,196.88
2019-05-02T07:41:52.061Z,202.50
2019-05-02T07:42:52.136Z,213.75
2019-05-02T07:43:55.904Z,202.50
2019-05-02T07:44:52.063Z,191.25
2019-05-02T07:45:52.853Z,208.12
2019-05-02T07:46:52.488Z,225.00
2019-05-02T07:47:52.012Z,213.75
2019-05-02T07:48:54.515Z,225.00
2019-05-02T07:49:51.991Z,191.25
2019-05-02T07:50:52.586Z,185.62
2019-05-02T07:51:52.405Z,208.12
2019-05-02T07:52:53.499Z,196.88
2019-05-02T07:53:51.964Z,208.12
2019-05-02T07:54:56.153Z,208.12
2019-05-02T07:55:52.909Z,202.50
2019-05-02T07:56:53.301Z,202.50
2019-05-02T07:57:51.917Z,213.75
2019-05-02T07:58:51.887Z,202.50
2019-05-02T07:59:54.965Z,202.50
2019-05-02T08:00:52.888Z,213.75
2019-05-02T08:01:51.845Z,258.75
2019-05-02T08:02:51.841Z,258.75
2019-05-02T08:03:51.849Z,275.62
2019-05-02T08:04:51.843Z,241.88
2019-05-02T08:05:54.417Z,247.50
2019-05-02T08:06:52.838Z,241.88
2019-05-02T08:07:53.351Z,258.75
2019-05-02T08:08:51.804Z,292.50
2019-05-02T08:09:51.863Z,281.25
2019-05-02T08:10:53.870Z,258.75
2019-05-02T08:11:52.772Z,258.75
2019-05-02T08:12:51.749Z,236.25
2019-05-02T08:13:55.816Z,275.62
2019-05-02T08:14:52.719Z,264.38
2019-05-02T08:15:52.455Z,264.38
2019-05-02T08:17:04.723Z,264.38
2019-05-02T08:17:53.871Z,258.75
2019-05-02T08:18:51.699Z,247.50
2019-05-02T08:19:51.669Z,241.88
2019-05-02T08:20:55.965Z,230.62
2019-05-02T08:21:52.662Z,241.88
2019-05-02T08:22:51.642Z,292.50
2019-05-02T08:23:51.691Z,281.25
2019-05-02T08:24:51.609Z,309.38
2019-05-02T08:25:51.593Z,264.38
2019-05-02T08:26:53.405Z,264.38
2019-05-02T08:27:52.616Z,258.75
2019-05-02T08:28:53.151Z,270.00
2019-05-02T08:29:51.556Z,275.62
2019-05-02T08:30:51.570Z,270.00
2019-05-02T08:31:51.558Z,281.25
2019-05-02T08:32:51.589Z,253.12
2019-05-02T08:33:51.515Z,258.75
2019-05-02T08:34:53.420Z,275.62
2019-05-02T08:35:51.504Z,264.38
2019-05-02T08:36:51.475Z,281.25
2019-05-02T08:37:51.496Z,258.75
2019-05-02T08:38:53.751Z,264.38
2019-05-02T08:39:51.557Z,286.88
2019-05-02T08:40:51.483Z,275.62
2019-05-02T08:41:56.238Z,270.00
2019-05-02T08:42:52.414Z,236.25
2019-05-02T08:43:51.449Z,292.50
2019-05-02T08:44:55.916Z,337.50
2019-05-02T08:45:51.516Z,315.00
2019-05-02T08:46:53.251Z,281.25
2019-05-02T08:47:51.369Z,241.88
2019-05-02T08:48:51.447Z,303.75
2019-05-02T08:49:54.758Z,360.00
2019-05-02T08:50:52.377Z,309.38
2019-05-02T08:51:51.395Z,309.38
2019-05-02T08:52:51.377Z,309.38
2019-05-02T08:53:52.161Z,337.50
2019-05-02T08:54:52.342Z,309.38
2019-05-02T08:55:51.327Z,292.50
2019-05-02T08:56:53.215Z,264.38
2019-05-02T08:57:52.287Z,270.00
2019-05-02T08:58:51.279Z,258.75
2019-05-02T08:59:55.469Z,298.12
2019-05-02T09:00:52.279Z,320.62
2019-05-02T09:01:51.407Z,303.75
2019-05-02T09:02:51.206Z,292.50
2019-05-02T09:03:56.396Z,315.00
2019-05-02T09:04:58.792Z,331.88
2019-05-02T09:06:04.928Z,337.50
2019-05-02T09:06:53.221Z,292.50
2019-05-02T09:07:52.155Z,298.12
2019-05-02T09:08:51.779Z,275.62
2019-05-02T09:09:51.139Z,343.12
2019-05-02T09:10:51.160Z,421.88
2019-05-02T09:12:03.310Z,320.62
2019-05-02T09:12:52.203Z,320.62
2019-05-02T09:13:52.632Z,354.38
2019-05-02T09:14:52.094Z,427.50
2019-05-02T09:15:53.972Z,376.88
2019-05-02T09:16:52.326Z,315.00
2019-05-02T09:17:56.278Z,348.75
2019-05-02T09:18:54.178Z,331.88
2019-05-02T09:20:00.325Z,421.88
2019-05-02T09:20:56.359Z,410.62
2019-05-02T09:21:52.591Z,371.25
2019-05-02T09:22:55.824Z,388.12
2019-05-02T09:23:51.907Z,382.50
2019-05-02T09:24:52.030Z,410.62
2019-05-02T09:25:51.945Z,416.25
2019-05-02T09:26:51.943Z,433.12
2019-05-02T09:27:52.631Z,444.38
2019-05-02T09:28:51.721Z,405.00
2019-05-02T09:29:51.925Z,393.75
2019-05-02T09:30:52.423Z,331.88
2019-05-02T09:31:59.506Z,382.50
2019-05-02T09:32:52.159Z,416.25
2019-05-02T09:33:59.513Z,393.75
2019-05-02T09:34:51.850Z,444.38
2019-05-02T09:36:02.351Z,478.12
2019-05-02T09:36:52.775Z,399.38
2019-05-02T09:38:01.775Z,382.50
2019-05-02T09:38:55.130Z,421.88
2019-05-02T09:39:52.530Z,410.62
2019-05-02T09:41:13.833Z,393.75
2019-05-02T09:41:52.737Z,416.25
2019-05-02T09:42:53.312Z,416.25
2019-05-02T09:43:52.403Z,365.62
2019-05-02T09:44:55.416Z,354.38
2019-05-02T09:45:52.119Z,388.12
2019-05-02T09:46:55.259Z,399.38
2019-05-02T09:47:59.563Z,382.50
2019-05-02T09:48:52.006Z,393.75
2019-05-02T09:49:53.065Z,343.12
2019-05-02T09:50:52.708Z,360.00
2019-05-02T09:51:59.344Z,405.00
2019-05-02T09:52:52.381Z,405.00
2019-05-02T09:53:52.374Z,382.50
2019-05-02T09:54:51.863Z,388.12
2019-05-02T09:55:55.748Z,405.00
2019-05-02T09:56:52.621Z,461.25
2019-05-02T09:57:51.963Z,382.50
2019-05-02T09:58:55.054Z,388.12
2019-05-02T09:59:55.704Z,433.12
2019-05-02T10:00:52.496Z,500.62
2019-05-02T10:01:52.567Z,472.50
2019-05-02T10:02:52.304Z,405.00
2019-05-02T10:03:51.840Z,410.62
2019-05-02T10:04:52.231Z,444.38
2019-05-02T10:05:52.331Z,388.12
2019-05-02T10:06:52.455Z,365.62
2019-05-02T10:07:52.427Z,320.62
2019-05-02T10:08:51.975Z,320.62
2019-05-02T10:09:51.914Z,337.50
2019-05-02T10:10:52.153Z,326.25
2019-05-02T10:11:52.359Z,348.75
2019-05-02T10:12:52.139Z,315.00
2019-05-02T10:13:51.900Z,337.50
2019-05-02T10:14:52.616Z,393.75
2019-05-02T10:15:52.569Z,382.50
2019-05-02T10:16:52.755Z,326.25
2019-05-02T10:17:51.895Z,371.25
2019-05-02T10:18:52.280Z,450.00
2019-05-02T10:19:54.949Z,399.38
2019-05-02T10:20:52.391Z,354.38
2019-05-02T10:21:54.365Z,399.38
2019-05-02T10:22:52.811Z,348.75
2019-05-02T10:23:53.727Z,371.25
2019-05-02T10:24:51.992Z,388.12
2019-05-02T10:25:52.100Z,405.00
2019-05-02T10:26:55.198Z,399.38
2019-05-02T10:27:52.343Z,489.38
2019-05-02T10:28:51.216Z,461.25
2019-05-02T10:29:52.341Z,489.38
2019-05-02T10:30:52.750Z,478.12
2019-05-02T10:31:52.671Z,348.75
2019-05-02T10:32:52.833Z,354.38
2019-05-02T10:33:52.919Z,337.50
2019-05-02T10:34:55.188Z,371.25
2019-05-02T10:35:52.457Z,382.50
2019-05-02T10:36:54.157Z,382.50
2019-05-02T10:37:52.145Z,393.75
2019-05-02T10:38:54.778Z,337.50
2019-05-02T10:39:52.198Z,326.25
2019-05-02T10:40:56.189Z,348.75
2019-05-02T10:41:52.656Z,388.12
2019-05-02T10:42:52.092Z,365.62
2019-05-02T10:43:53.939Z,365.62
2019-05-02T10:44:52.140Z,348.75
2019-05-02T10:45:52.890Z,320.62
2019-05-02T10:46:52.283Z,315.00
2019-05-02T10:47:50.073Z,388.12
2019-05-02T10:48:50.061Z,320.62
2019-05-02T10:49:50.066Z,331.88
2019-05-02T10:50:50.074Z,382.50
2019-05-02T10:51:51.380Z,399.38
2019-05-02T10:52:50.028Z,438.75
2019-05-02T10:53:52.597Z,388.12
2019-05-02T10:54:52.817Z,343.12
2019-05-02T10:55:52.109Z,348.75
2019-05-02T10:56:51.774Z,371.25
2019-05-02T10:57:50.112Z,365.62
2019-05-02T10:58:52.209Z,421.88
2019-05-02T10:59:49.968Z,461.25
2019-05-02T11:00:52.176Z,478.12
2019-05-02T11:01:52.026Z,405.00
2019-05-02T11:02:49.986Z,444.38
2019-05-02T11:03:51.668Z,421.88
2019-05-02T11:04:49.916Z,466.88
2019-05-02T11:05:49.932Z,466.88
2019-05-02T11:06:51.747Z,450.00
2019-05-02T11:07:52.161Z,393.75
2019-05-02T11:08:49.896Z,348.75
2019-05-02T11:09:49.841Z,433.12
2019-05-02T11:10:49.877Z,388.12
2019-05-02T11:11:51.861Z,365.62
2019-05-02T11:12:49.960Z,298.12
2019-05-02T11:13:53.372Z,405.00
2019-05-02T11:14:51.667Z,455.62
2019-05-02T11:15:49.790Z,601.88
2019-05-02T11:16:49.809Z,686.25
2019-05-02T11:17:49.900Z,748.12
2019-05-02T11:18:52.293Z,748.12
2019-05-02T11:19:49.763Z,686.25
2019-05-02T11:20:49.807Z,669.38
2019-05-02T11:21:56.278Z,748.12
2019-05-02T11:22:52.662Z,675.00
2019-05-02T11:23:49.885Z,618.75
2019-05-02T11:24:49.695Z,551.25
2019-05-02T11:25:49.689Z,495.00
2019-05-02T11:26:49.665Z,489.38
2019-05-02T11:27:49.670Z,455.62
2019-05-02T11:28:49.657Z,461.25
2019-05-02T11:29:49.690Z,410.62
2019-05-02T11:30:49.657Z,343.12
2019-05-02T11:31:49.623Z,365.62
2019-05-02T11:32:49.606Z,399.38
2019-05-02T11:33:49.613Z,382.50
2019-05-02T11:34:49.607Z,331.88
2019-05-02T11:35:51.571Z,382.50
2019-05-02T11:36:49.644Z,523.12
2019-05-02T11:37:51.598Z,669.38
2019-05-02T11:38:59.088Z,720.00
2019-05-02T11:39:53.442Z,579.38
2019-05-02T11:40:52.069Z,618.75
2019-05-02T11:41:49.757Z,753.75
2019-05-02T11:42:49.579Z,753.75
2019-05-02T11:43:49.543Z,686.25
2019-05-02T11:44:49.499Z,528.75
2019-05-02T11:45:54.218Z,624.38
2019-05-02T11:46:52.053Z,646.88
2019-05-02T11:47:49.451Z,556.88
2019-05-02T11:48:56.433Z,534.38
2019-05-02T11:49:53.326Z,568.12
2019-05-02T11:50:52.344Z,461.25
2019-05-02T11:51:52.670Z,511.88
2019-05-02T11:52:52.257Z,568.12
2019-05-02T11:53:49.371Z,506.25
2019-05-02T11:54:49.364Z,534.38
2019-05-02T11:55:49.371Z,573.75
2019-05-02T11:56:51.316Z,511.88
2019-05-02T11:57:49.365Z,483.75
2019-05-02T11:58:50.301Z,421.88
2019-05-02T11:59:49.313Z,528.75
2019-05-02T12:00:49.781Z,495.00
2019-05-02T12:01:59.108Z,371.25
2019-05-02T12:02:56.247Z,371.25
2019-05-02T12:03:52.258Z,360.00
2019-05-02T12:04:53.883Z,326.25
2019-05-02T12:05:52.263Z,343.12
2019-05-02T12:06:58.259Z,348.75
2019-05-02T12:07:50.283Z,337.50
2019-05-02T12:08:49.558Z,292.50
2019-05-02T12:09:55.478Z,270.00
2019-05-02T12:10:51.933Z,326.25
2019-05-02T12:11:52.784Z,315.00
2019-05-02T12:12:50.180Z,303.75
2019-05-02T12:13:52.757Z,371.25
2019-05-02T12:14:50.159Z,517.50
2019-05-02T12:15:49.171Z,500.62
2019-05-02T12:16:49.180Z,421.88
2019-05-02T12:17:49.197Z,438.75
2019-05-02T12:18:49.113Z,444.38
2019-05-02T12:19:49.163Z,376.88
2019-05-02T12:20:49.104Z,354.38
2019-05-02T12:21:49.055Z,354.38
2019-05-02T12:22:49.073Z,354.38
2019-05-02T12:23:49.080Z,365.62
2019-05-02T12:24:49.052Z,399.38
2019-05-02T12:25:49.073Z,360.00
2019-05-02T12:26:49.017Z,410.62
2019-05-02T12:27:49.054Z,388.12
2019-05-02T12:28:49.054Z,433.12
2019-05-02T12:29:50.228Z,376.88
2019-05-02T12:30:51.841Z,433.12
2019-05-02T12:31:54.719Z,416.25
2019-05-02T12:32:49.927Z,343.12
2019-05-02T12:33:48.946Z,444.38
2019-05-02T12:34:48.937Z,596.25
2019-05-02T12:35:48.953Z,669.38
2019-05-02T12:36:48.930Z,545.62
2019-05-02T12:37:52.387Z,551.25
2019-05-02T12:38:49.911Z,455.62
2019-05-02T12:39:48.920Z,410.62
2019-05-02T12:40:48.853Z,376.88
2019-05-02T12:41:49.228Z,444.38
2019-05-02T12:42:48.850Z,433.12
2019-05-02T12:43:48.857Z,450.00
2019-05-02T12:44:48.917Z,348.75
2019-05-02T12:45:48.808Z,382.50